Latest  Newer  Older  Last 2 hours animation  Current image  Latest image 
Rain/snow radar  Infrared sat images 
Real-time lightning map

All time is UTC (add 2 hours to UTC in wintertime, 3 hours to UTC in DST for Latvia local time)

2020/01/24 12:20 EVRA 241220Z 26008KT 210V310 9999 OVC016 07/04 Q1006 R18/290195 NOSIG
2020/01/24 12:20 EVLA 241220Z AUTO 25018KT 9999 FEW008/// BKN045/// OVC052/// 06/06 Q1009
2020/01/24 12:20 EVVA 241220Z AUTO 25014KT 9999 FEW014 SCT022 SCT060 06/05 Q1006
2020/01/24 12:20 EYKA 241220Z 25015KT 5000 -DZ BR OVC006 04/03 Q1011 R08/290095
2020/01/24 12:20 EYPA 241220Z 27008KT 240V310 9999 BKN010 06/05 Q1011 R19/2///95
2020/01/24 12:20 EYSA 241220Z 26017KT 4700 -DZ BR OVC009 05/04 Q1009 R14L/29//95 R14R/29//95 GRN NOSIG
2020/01/24 12:20 EYVI 241220Z 25014KT 5000 -DZ BR OVC004 03/02 Q1011 R19/2/0195 TEMPO 3000 DZ BR
2020/01/24 11:50 EEKA 241150Z 27010KT 230V320 9999 BKN011 06/03 Q1001
2020/01/24 11:50 EEKE 241150Z 27011G23KT 220V320 9999 OVC013 07/05 Q1003 R17/150095
2020/01/24 11:50 EEPU 241150Z 22010KT 9999 OVC013 06/04 Q1001
2020/01/24 12:20 EETN 241220Z 27018KT 9999 OVC011 05/03 Q0999 R08/290195 TEMPO 27018G30KT
2020/01/24 11:50 EETU 241150Z 26017KT 9999 OVC013 05/03 Q1000
   RIGA AIRPORT     EVRA               56 55N  023 58E   10   X     T          6 LV
   LIEPAJA INTL     EVLA        26406  56 31N  021 06E    4   X                8 LV
   VENTPILS         EVVA               57 21N  021 33E    6   X                8 LV
   KAUNAS           EYKA               54 54N  023 55E   77   X     T          6 LT
   PALANGA INTL     EYPA               55 55N  021 03E   10   X                6 LT
   SIAULIAI INTL    EYSA               55 54N  023 24E  135   X     T          6 LT
   VILNIUS INTL     EYVI        26730  54 38N  025 17E  197   X     T          6 LT
   KARDLA           EEKA        26116  58 59N  022 50E    4   X                8 EE
   KURESSAARE       EEKE               58 14N  022 31E    4   X                8 EE
   PARNU            EEPU               58 25N  024 28E   14   X                8 EE
   TALLINN          EETN        26038  59 24N  024 49E   40   X     T          8 EE
   TARTU            EETU               58 19N  026 41E   67   X                8 EE

cloud coverage image from sat24.com and METAR data from weather.noaa.gov